Time;durP1;ratioP1;P1;durP2;ratioP2;P2;SDS_P1;SDS_P2;PMS_P1;PMS_P2;Temp;Humidity;BMP_temperature;BMP_pressure;BME280_temperature;BME280_humidity;BME280_pressure;Samples;Min_cycle;Max_cycle;Signal;HPM_P1;HPM_P2
2023/06/22 00:00:53;;;;;;;20.83;15.32;;;17.60;99.90;;;;;;5056968;28;20075;-66
2023/06/22 00:03:22;;;;;;;23.48;16.02;;;17.50;99.90;;;;;;5056180;28;20067;-66
2023/06/22 00:05:50;;;;;;;22.30;15.40;;;17.50;99.90;;;;;;5074714;28;20442;-66
2023/06/22 00:08:17;;;;;;;25.70;16.02;;;17.50;99.90;;;;;;5074443;28;20109;-66
2023/06/22 00:10:46;;;;;;;24.15;16.02;;;17.50;99.90;;;;;;5055865;28;20102;-67
2023/06/22 00:13:15;;;;;;;23.20;16.27;;;17.50;99.90;;;;;;5074318;28;20057;-67
2023/06/22 00:15:43;;;;;;;21.23;16.60;;;17.50;99.90;;;;;;5056497;28;20403;-66
2023/06/22 00:18:11;;;;;;;22.30;16.40;;;17.40;99.90;;;;;;5073815;28;20105;-68
2023/06/22 00:20:38;;;;;;;21.38;16.15;;;17.40;99.90;;;;;;5074147;28;20119;-66
2023/06/22 00:23:08;;;;;;;24.02;16.48;;;17.40;99.90;;;;;;5074503;28;20381;-66
2023/06/22 00:25:35;;;;;;;23.08;16.60;;;17.40;99.90;;;;;;5036894;28;20053;-66
2023/06/22 00:28:04;;;;;;;20.27;16.35;;;17.30;99.90;;;;;;5055071;28;20099;-66
2023/06/22 00:30:32;;;;;;;18.10;13.32;;;17.30;99.90;;;;;;5037709;28;20057;-66
2023/06/22 00:32:59;;;;;;;19.83;15.68;;;17.30;99.90;;;;;;5073158;28;20466;-66
2023/06/22 00:35:28;;;;;;;20.85;15.40;;;17.30;99.90;;;;;;5074275;28;20094;-67
2023/06/22 00:38:00;;;;;;;18.27;15.23;;;17.20;99.90;;;;;;5061863;28;20385;-66
2023/06/22 00:40:27;;;;;;;20.80;15.43;;;17.20;99.90;;;;;;5037233;28;20049;-65
2023/06/22 00:42:55;;;;;;;23.65;16.30;;;17.20;99.90;;;;;;5055141;28;20114;-65
2023/06/22 00:45:23;;;;;;;21.88;16.80;;;17.20;99.90;;;;;;5073157;28;20074;-66
2023/06/22 00:47:51;;;;;;;22.38;17.77;;;17.10;99.90;;;;;;5055386;28;20418;-65
2023/06/22 00:50:21;;;;;;;27.63;19.48;;;17.10;99.90;;;;;;5073744;28;20057;-66
2023/06/22 00:52:52;;;;;;;26.02;18.52;;;17.10;99.90;;;;;;5035865;28;20045;-64
2023/06/22 00:55:19;;;;;;;27.25;17.30;;;17.10;99.90;;;;;;5055300;28;20056;-65
2023/06/22 00:57:47;;;;;;;21.30;15.48;;;17.10;99.90;;;;;;5055768;28;20496;-66
2023/06/22 01:00:16;;;;;;;23.70;16.65;;;17.10;99.90;;;;;;5055200;28;20106;-64
2023/06/22 01:02:46;;;;;;;24.75;17.80;;;17.10;99.90;;;;;;5073508;28;20045;-65
2023/06/22 01:05:14;;;;;;;22.70;16.55;;;17.10;99.90;;;;;;5073513;28;20499;-65
2023/06/22 01:07:49;;;;;;;23.10;17.38;;;17.10;99.90;;;;;;5072672;28;20127;-65
2023/06/22 01:10:22;;;;;;;21.85;17.42;;;17.10;99.90;;;;;;5055756;28;20098;-66
2023/06/22 01:12:54;;;;;;;26.55;16.30;;;17.00;99.90;;;;;;5073606;28;20071;-65
2023/06/22 01:15:28;;;;;;;21.98;16.58;;;17.00;99.90;;;;;;5054091;28;20041;-66
2023/06/22 01:17:59;;;;;;;24.73;17.50;;;17.00;99.90;;;;;;5038869;28;20500;-67
2023/06/22 01:20:28;;;;;;;20.48;15.27;;;16.90;99.90;;;;;;5055476;28;20045;-66
2023/06/22 01:23:08;;;;;;;23.50;18.13;;;16.90;99.90;;;;;;5072737;28;20411;-65
2023/06/22 01:25:46;;;;;;;25.48;18.60;;;16.90;99.90;;;;;;5057133;28;20037;-65
2023/06/22 01:28:26;;;;;;;27.63;20.33;;;16.90;99.90;;;;;;5072571;28;20049;-65
2023/06/22 01:31:05;;;;;;;25.30;19.63;;;16.80;99.90;;;;;;5073316;28;20407;-66
2023/06/22 01:33:35;;;;;;;24.80;20.13;;;16.80;99.90;;;;;;5072807;28;20434;-66
2023/06/22 01:36:03;;;;;;;27.23;20.15;;;16.80;99.90;;;;;;5066310;28;20103;-67
2023/06/22 01:38:31;;;;;;;25.45;19.92;;;16.70;99.90;;;;;;5072483;28;20049;-66
2023/06/22 01:40:59;;;;;;;20.88;17.42;;;16.70;99.90;;;;;;5072685;28;20492;-66
2023/06/22 01:43:27;;;;;;;24.95;18.92;;;16.60;99.90;;;;;;5035782;28;20402;-66
2023/06/22 01:45:57;;;;;;;22.83;18.23;;;16.70;99.90;;;;;;5036134;28;20052;-65
2023/06/22 01:48:25;;;;;;;20.73;18.52;;;16.60;99.90;;;;;;5036071;28;20041;-65
2023/06/22 01:50:53;;;;;;;23.20;18.90;;;16.60;99.90;;;;;;5069741;28;20053;-67
2023/06/22 01:53:21;;;;;;;23.63;20.17;;;16.50;99.90;;;;;;5072382;28;20518;-66
2023/06/22 01:55:48;;;;;;;23.15;18.95;;;16.50;99.90;;;;;;5054121;28;20048;-65
2023/06/22 01:58:16;;;;;;;26.27;20.75;;;16.40;99.90;;;;;;5072316;28;20465;-66
2023/06/22 02:00:49;;;;;;;25.52;21.30;;;16.40;99.90;;;;;;5072756;28;20048;-65
2023/06/22 02:03:21;;;;;;;31.30;23.10;;;16.40;99.90;;;;;;5072179;28;20097;-65
2023/06/22 02:05:52;;;;;;;26.75;21.15;;;16.50;99.90;;;;;;5071680;28;20442;-65
2023/06/22 02:08:23;;;;;;;32.08;20.60;;;16.40;99.90;;;;;;5063178;28;20057;-65
2023/06/22 02:10:51;;;;;;;26.15;20.90;;;16.40;99.90;;;;;;5052945;28;20393;-66
2023/06/22 02:13:19;;;;;;;22.65;19.73;;;16.40;99.90;;;;;;5036789;28;20045;-65
2023/06/22 02:15:47;;;;;;;24.27;19.67;;;16.40;99.90;;;;;;5072129;28;20059;-66
2023/06/22 02:18:14;;;;;;;24.98;19.50;;;16.30;99.90;;;;;;5053770;28;20056;-65
2023/06/22 02:20:43;;;;;;;25.38;20.17;;;16.30;99.90;;;;;;5047094;28;20049;-65
2023/06/22 02:23:10;;;;;;;23.85;18.98;;;16.30;99.90;;;;;;5053098;28;20520;-65
2023/06/22 02:25:37;;;;;;;26.65;20.10;;;16.20;99.90;;;;;;5071134;28;20048;-64
2023/06/22 02:28:05;;;;;;;27.75;20.80;;;16.20;99.90;;;;;;5054015;28;20044;-64
2023/06/22 02:30:32;;;;;;;25.35;19.42;;;16.20;99.90;;;;;;5035197;28;20057;-65
2023/06/22 02:32:59;;;;;;;25.40;20.00;;;16.20;99.90;;;;;;5052608;28;20048;-66
2023/06/22 02:35:27;;;;;;;26.27;20.75;;;16.20;99.90;;;;;;5035182;28;20041;-65
2023/06/22 02:37:56;;;;;;;27.60;21.40;;;16.10;99.90;;;;;;5052543;28;20503;-64
2023/06/22 02:40:22;;;;;;;28.00;20.38;;;16.10;99.90;;;;;;5052976;28;20451;-66
2023/06/22 02:42:49;;;;;;;28.05;22.42;;;16.10;99.90;;;;;;5071680;28;20044;-64
2023/06/22 02:45:16;;;;;;;29.45;21.42;;;16.10;99.90;;;;;;5053352;28;20048;-65
2023/06/22 02:47:43;;;;;;;29.65;23.25;;;16.10;99.90;;;;;;5053100;28;20052;-65
2023/06/22 02:50:11;;;;;;;27.30;22.05;;;16.10;99.90;;;;;;5043524;28;20053;-65
2023/06/22 02:52:39;;;;;;;28.27;21.10;;;16.10;99.90;;;;;;5070977;28;20052;-64
2023/06/22 02:55:08;;;;;;;28.60;22.67;;;16.00;99.90;;;;;;5046595;28;20076;-65
2023/06/22 02:57:35;;;;;;;27.38;22.40;;;16.00;99.90;;;;;;5052342;28;20071;-65
2023/06/22 03:00:16;;;;;;;30.80;23.00;;;16.00;99.90;;;;;;5052690;28;20514;-65
2023/06/22 03:02:44;;;;;;;32.50;23.70;;;16.10;99.90;;;;;;5042919;28;20446;-65
2023/06/22 03:05:13;;;;;;;30.75;23.42;;;16.00;99.90;;;;;;5053454;28;20048;-65
2023/06/22 03:07:41;;;;;;;29.23;21.83;;;16.10;99.90;;;;;;5070898;28;20059;-66
2023/06/22 03:10:11;;;;;;;25.90;20.45;;;16.00;99.90;;;;;;5053864;28;20049;-65
2023/06/22 03:12:38;;;;;;;36.20;23.13;;;16.00;99.90;;;;;;5071477;28;20040;-65
2023/06/22 03:15:07;;;;;;;31.40;22.70;;;16.00;99.90;;;;;;5052855;28;20344;-65
2023/06/22 03:17:34;;;;;;;29.60;21.83;;;15.90;99.90;;;;;;5075357;28;20048;-65
2023/06/22 03:20:04;;;;;;;29.92;22.90;;;15.90;99.90;;;;;;5057437;28;20052;-64
2023/06/22 03:22:31;;;;;;;31.80;23.77;;;16.00;99.90;;;;;;5057044;28;20048;-63
2023/06/22 03:24:58;;;;;;;22.23;19.67;;;16.00;99.90;;;;;;5074905;28;20036;-63
2023/06/22 03:27:27;;;;;;;25.73;20.38;;;16.00;99.90;;;;;;5057121;28;20479;-64
2023/06/22 03:29:53;;;;;;;26.23;20.90;;;16.00;99.90;;;;;;5075059;28;20079;-63
2023/06/22 03:32:21;;;;;;;27.02;21.38;;;16.00;99.90;;;;;;5075376;28;20326;-63
2023/06/22 03:34:48;;;;;;;30.40;21.60;;;16.00;99.90;;;;;;5056769;28;20384;-65
2023/06/22 03:37:15;;;;;;;23.80;20.52;;;16.00;99.90;;;;;;5075252;28;20045;-63
2023/06/22 03:39:42;;;;;;;27.92;21.48;;;16.00;99.90;;;;;;5075044;28;20115;-65
2023/06/22 03:42:09;;;;;;;28.80;23.35;;;16.00;99.90;;;;;;5056601;28;20056;-64
2023/06/22 03:44:37;;;;;;;27.60;19.88;;;16.00;99.90;;;;;;5071503;28;20163;-66
2023/06/22 03:47:07;;;;;;;27.95;20.83;;;16.10;99.90;;;;;;5047342;28;20098;-65
2023/06/22 03:49:34;;;;;;;27.55;21.95;;;16.30;99.90;;;;;;5043380;28;20063;-66
2023/06/22 03:52:02;;;;;;;29.92;19.23;;;16.60;99.90;;;;;;5040920;28;20049;-66
2023/06/22 03:54:29;;;;;;;26.90;19.30;;;16.80;99.90;;;;;;5059394;28;20397;-66
2023/06/22 03:56:57;;;;;;;28.60;21.38;;;16.90;99.90;;;;;;5041903;28;20053;-65
2023/06/22 03:59:24;;;;;;;33.60;22.45;;;16.90;99.90;;;;;;5061706;28;20045;-66
2023/06/22 04:01:52;;;;;;;30.15;22.92;;;17.10;99.90;;;;;;5062608;28;20109;-65
2023/06/22 04:04:19;;;;;;;29.15;22.65;;;17.30;99.90;;;;;;5043076;28;20127;-65
2023/06/22 04:06:47;;;;;;;20.30;16.80;;;17.30;99.90;;;;;;5061282;28;20561;-65
2023/06/22 04:09:14;;;;;;;26.40;19.45;;;17.40;99.90;;;;;;5042117;28;20492;-66
2023/06/22 04:11:40;;;;;;;25.45;20.90;;;17.40;99.90;;;;;;5060372;28;20057;-66
2023/06/22 04:14:07;;;;;;;26.17;19.10;;;17.50;99.90;;;;;;5060151;28;20055;-65
2023/06/22 04:16:34;;;;;;;28.25;19.65;;;17.60;99.90;;;;;;5042566;28;20388;-66
2023/06/22 04:19:03;;;;;;;25.77;18.77;;;17.70;99.90;;;;;;5044054;28;20049;-66
2023/06/22 04:21:30;;;;;;;25.25;19.67;;;17.80;99.90;;;;;;5045473;28;20131;-65
2023/06/22 04:23:56;;;;;;;27.00;21.35;;;17.80;99.90;;;;;;5061265;28;20044;-66
2023/06/22 04:26:24;;;;;;;28.38;22.05;;;17.90;99.90;;;;;;5048727;28;20052;-65
2023/06/22 04:28:55;;;;;;;24.77;18.63;;;17.80;99.90;;;;;;5060055;28;20191;-65
2023/06/22 04:31:30;;;;;;;27.85;20.92;;;17.90;99.90;;;;;;5041166;28;20048;-65
2023/06/22 04:33:57;;;;;;;30.30;21.40;;;18.00;99.90;;;;;;5041995;28;20056;-66
2023/06/22 04:36:30;;;;;;;29.60;24.63;;;18.10;99.90;;;;;;5059955;28;20044;-66
2023/06/22 04:38:57;;;;;;;33.72;25.90;;;18.00;99.90;;;;;;5061768;28;20496;-67
2023/06/22 04:41:24;;;;;;;36.67;25.90;;;18.00;99.90;;;;;;5042161;28;20095;-67
2023/06/22 04:43:53;;;;;;;35.17;26.67;;;17.90;99.90;;;;;;5056891;28;20400;-66
2023/06/22 04:46:20;;;;;;;38.67;26.60;;;17.80;99.90;;;;;;5058291;28;20122;-65
2023/06/22 04:48:47;;;;;;;37.90;26.40;;;17.70;99.90;;;;;;5040703;28;20053;-66
2023/06/22 04:51:14;;;;;;;37.60;27.85;;;17.70;99.90;;;;;;5042384;28;20053;-66
2023/06/22 04:53:42;;;;;;;37.00;26.48;;;17.60;99.90;;;;;;5040492;28;20480;-67
2023/06/22 04:56:09;;;;;;;35.08;27.40;;;17.50;99.90;;;;;;5057519;28;20476;-66
2023/06/22 04:58:36;;;;;;;35.53;27.17;;;17.50;99.90;;;;;;5044352;28;20053;-66
2023/06/22 05:01:03;;;;;;;39.35;28.60;;;17.60;99.90;;;;;;5056432;28;20052;-67
2023/06/22 05:03:30;;;;;;;41.80;30.05;;;17.60;99.90;;;;;;5056824;28;20052;-65
2023/06/22 05:05:57;;;;;;;43.70;30.70;;;17.70;99.90;;;;;;5060064;28;20063;-67
2023/06/22 05:08:28;;;;;;;40.67;30.67;;;17.70;99.90;;;;;;5059038;28;20483;-66
2023/06/22 05:10:56;;;;;;;36.83;28.25;;;17.80;99.90;;;;;;5059105;28;20085;-67
2023/06/22 05:13:26;;;;;;;40.97;29.83;;;18.00;99.90;;;;;;5056999;28;20045;-66
2023/06/22 05:16:00;;;;;;;40.90;29.88;;;18.10;99.90;;;;;;5058648;28;20492;-66
2023/06/22 05:18:29;;;;;;;38.47;28.63;;;18.20;99.90;;;;;;5039116;28;20049;-65
2023/06/22 05:20:56;;;;;;;37.75;29.05;;;18.30;99.90;;;;;;5040657;28;20055;-66
2023/06/22 05:23:23;;;;;;;38.67;30.20;;;18.50;99.90;;;;;;5042356;28;20052;-68
2023/06/22 05:25:50;;;;;;;41.45;29.30;;;18.70;99.90;;;;;;5055098;28;20045;-66
2023/06/22 05:28:22;;;;;;;36.65;27.88;;;18.90;99.90;;;;;;5060948;28;20084;-67
2023/06/22 05:30:49;;;;;;;36.97;27.85;;;19.10;99.90;;;;;;5044367;28;20048;-67
2023/06/22 05:33:16;;;;;;;33.45;27.00;;;19.30;99.90;;;;;;5068426;28;20048;-67
2023/06/22 05:35:43;;;;;;;34.05;25.35;;;19.40;99.90;;;;;;5055593;28;20049;-67
2023/06/22 05:38:10;;;;;;;36.17;26.13;;;19.60;99.90;;;;;;5059001;28;20045;-67
2023/06/22 05:40:37;;;;;;;31.83;25.00;;;19.80;99.90;;;;;;5051279;28;20415;-66
2023/06/22 05:43:04;;;;;;;30.10;23.80;;;20.00;99.90;;;;;;5041203;28;20053;-67
2023/06/22 05:45:32;;;;;;;27.17;22.10;;;20.30;99.90;;;;;;5053483;28;20416;-66
2023/06/22 05:47:59;;;;;;;29.52;22.77;;;20.50;99.90;;;;;;5060850;28;20052;-66
2023/06/22 05:50:26;;;;;;;29.75;21.95;;;20.70;99.90;;;;;;5048864;28;20118;-66
2023/06/22 05:52:53;;;;;;;26.73;22.08;;;20.70;99.90;;;;;;5068437;28;20040;-66
2023/06/22 05:55:20;;;;;;;26.05;22.05;;;20.80;99.90;;;;;;5048698;28;20113;-66
2023/06/22 05:57:47;;;;;;;26.15;20.83;;;20.80;99.90;;;;;;5062910;28;20492;-64
2023/06/22 06:00:15;;;;;;;22.42;19.15;;;21.00;99.90;;;;;;5068476;28;20478;-66
2023/06/22 06:02:43;;;;;;;26.33;19.40;;;21.00;99.90;;;;;;5049983;28;20867;-65
2023/06/22 06:05:13;;;;;;;20.55;17.92;;;21.20;99.90;;;;;;5068440;28;20348;-65
2023/06/22 06:07:40;;;;;;;23.00;18.63;;;21.10;99.90;;;;;;5068808;28;20044;-66
2023/06/22 06:10:08;;;;;;;21.50;17.17;;;21.20;99.90;;;;;;5050535;28;20051;-67
2023/06/22 06:12:35;;;;;;;19.92;16.67;;;21.40;99.90;;;;;;5064896;28;20045;-65
2023/06/22 06:15:02;;;;;;;18.67;16.42;;;21.40;99.90;;;;;;5058627;28;20499;-66
2023/06/22 06:17:29;;;;;;;19.35;16.23;;;21.60;99.90;;;;;;5040041;28;20053;-66
2023/06/22 06:19:59;;;;;;;22.05;16.17;;;21.70;99.90;;;;;;5041397;28;20045;-66
2023/06/22 06:22:26;;;;;;;20.98;15.50;;;22.00;99.90;;;;;;5060713;28;20095;-65
2023/06/22 06:24:53;;;;;;;18.75;14.82;;;22.00;99.90;;;;;;5060096;28;20055;-67
2023/06/22 06:27:20;;;;;;;20.50;15.27;;;22.10;99.90;;;;;;5051825;28;20056;-66
2023/06/22 06:29:48;;;;;;;19.00;15.13;;;22.20;99.90;;;;;;5056577;28;20045;-65
2023/06/22 06:32:15;;;;;;;18.73;14.88;;;22.30;99.90;;;;;;5053273;28;20052;-64
2023/06/22 06:34:42;;;;;;;18.88;14.32;;;22.30;99.90;;;;;;5052231;28;20053;-65
2023/06/22 06:37:11;;;;;;;19.50;14.32;;;22.40;99.90;;;;;;5065179;28;20032;-65
2023/06/22 06:39:38;;;;;;;21.85;14.60;;;22.50;99.90;;;;;;5034612;28;20068;-66
2023/06/22 06:42:06;;;;;;;18.40;14.77;;;22.70;99.90;;;;;;5066458;28;20048;-67
2023/06/22 06:44:33;;;;;;;17.08;14.45;;;23.00;99.90;;;;;;5047679;28;20079;-66
2023/06/22 06:47:00;;;;;;;18.40;13.95;;;23.20;99.90;;;;;;5039192;28;20056;-67
2023/06/22 06:49:27;;;;;;;16.50;13.25;;;23.50;99.90;;;;;;5052557;28;20098;-67
2023/06/22 06:51:55;;;;;;;18.17;12.18;;;23.70;99.90;;;;;;5052108;28;20051;-67
2023/06/22 06:54:24;;;;;;;16.35;13.20;;;23.80;99.90;;;;;;5067591;28;20048;-67
2023/06/22 06:56:51;;;;;;;17.95;13.35;;;23.90;99.90;;;;;;5034248;28;20049;-67
2023/06/22 06:59:17;;;;;;;15.88;12.32;;;24.20;99.90;;;;;;5053040;28;20076;-67
2023/06/22 07:01:44;;;;;;;17.42;11.88;;;24.30;99.90;;;;;;5033808;28;20053;-66
2023/06/22 07:04:11;;;;;;;17.42;11.98;;;24.40;99.90;;;;;;5034445;28;20269;-67
2023/06/22 07:06:38;;;;;;;14.20;12.25;;;24.60;99.90;;;;;;5037385;28;20522;-67
2023/06/22 07:09:05;;;;;;;15.95;11.75;;;24.70;99.90;;;;;;5052316;28;20455;-66
2023/06/22 07:11:35;;;;;;;15.20;12.27;;;24.70;99.90;;;;;;5040714;28;20044;-67
2023/06/22 07:14:02;;;;;;;15.27;10.93;;;24.90;99.90;;;;;;5060877;28;20052;-66
2023/06/22 07:16:31;;;;;;;15.30;11.27;;;25.20;99.90;;;;;;5042645;28;20045;-67
2023/06/22 07:18:58;;;;;;;14.93;10.60;;;25.50;99.90;;;;;;5041120;28;20067;-67
2023/06/22 07:21:25;;;;;;;11.95;9.75;;;25.70;99.90;;;;;;5041094;28;20041;-67
2023/06/22 07:23:52;;;;;;;13.13;10.13;;;26.00;99.90;;;;;;5070738;28;20083;-66
2023/06/22 07:26:19;;;;;;;11.27;9.23;;;26.10;99.90;;;;;;5070412;28;20044;-66
2023/06/22 07:28:47;;;;;;;10.80;9.23;;;26.40;99.90;;;;;;5038049;28;20106;-67
2023/06/22 07:31:14;;;;;;;13.43;9.27;;;26.50;99.90;;;;;;5069802;28;20049;-66
2023/06/22 07:33:41;;;;;;;11.77;9.80;;;27.00;99.90;;;;;;5052105;28;20147;-67
2023/06/22 07:36:08;;;;;;;11.32;9.70;;;27.30;99.90;;;;;;5036646;28;20037;-67
2023/06/22 07:38:35;;;;;;;9.93;7.63;;;27.50;99.90;;;;;;5051748;28;20457;-67
2023/06/22 07:41:05;;;;;;;11.05;7.72;;;27.60;99.90;;;;;;5051805;28;20052;-67
2023/06/22 07:43:33;;;;;;;12.65;8.52;;;27.60;99.00;;;;;;5070491;28;20049;-67
2023/06/22 07:46:01;;;;;;;11.45;8.93;;;27.80;98.50;;;;;;5052730;28;20048;-67
2023/06/22 07:48:28;;;;;;;13.88;9.00;;;27.80;98.60;;;;;;5069313;28;20098;-68
2023/06/22 07:50:55;;;;;;;10.48;8.82;;;27.90;98.40;;;;;;5052205;28;20049;-66
2023/06/22 07:53:23;;;;;;;10.32;8.05;;;28.30;98.30;;;;;;5070263;28;20051;-66
2023/06/22 07:55:49;;;;;;;10.50;7.60;;;28.30;98.20;;;;;;5052108;28;20048;-67
2023/06/22 07:58:18;;;;;;;9.55;6.85;;;28.30;96.90;;;;;;5034100;28;20060;-66
2023/06/22 08:00:45;;;;;;;8.10;6.93;;;28.40;96.10;;;;;;5051395;28;20088;-67
2023/06/22 08:03:14;;;;;;;11.23;7.25;;;28.50;96.10;;;;;;5052573;28;20055;-68
2023/06/22 08:05:41;;;;;;;8.23;6.43;;;28.70;95.20;;;;;;5070103;28;20048;-67
2023/06/22 08:08:07;;;;;;;11.05;7.50;;;29.00;95.10;;;;;;5064600;28;20506;-67
2023/06/22 08:10:36;;;;;;;11.10;7.15;;;28.70;95.10;;;;;;5054444;28;20061;-67
2023/06/22 08:13:03;;;;;;;9.50;6.78;;;28.80;94.90;;;;;;5054597;28;20398;-66
2023/06/22 08:15:29;;;;;;;8.35;6.13;;;29.00;94.80;;;;;;5059959;28;20120;-66
2023/06/22 08:17:57;;;;;;;8.68;5.13;;;29.20;95.00;;;;;;5037047;28;20048;-67
2023/06/22 08:20:26;;;;;;;7.10;5.70;;;29.30;94.90;;;;;;5044470;28;20132;-67
2023/06/22 08:22:55;;;;;;;9.30;6.30;;;29.50;94.10;;;;;;5044377;28;20507;-68
2023/06/22 08:25:22;;;;;;;7.10;5.90;;;29.40;93.80;;;;;;5043325;28;20102;-67
2023/06/22 08:27:49;;;;;;;7.22;6.18;;;29.50;94.10;;;;;;5042651;28;20041;-68
2023/06/22 08:30:17;;;;;;;7.70;6.00;;;29.60;93.60;;;;;;5043900;28;20143;-68
2023/06/22 08:32:44;;;;;;;8.77;5.78;;;29.90;93.70;;;;;;5045089;28;20127;-66
2023/06/22 08:35:10;;;;;;;8.40;4.80;;;29.80;93.70;;;;;;5061279;28;20052;-66
2023/06/22 08:37:39;;;;;;;7.57;6.78;;;29.70;93.40;;;;;;5048770;28;20506;-67
2023/06/22 08:40:08;;;;;;;8.05;6.35;;;29.80;92.60;;;;;;5064961;28;20049;-67
2023/06/22 08:42:35;;;;;;;7.88;5.47;;;29.80;92.70;;;;;;5066971;28;20518;-66
2023/06/22 08:45:02;;;;;;;8.70;5.95;;;30.10;92.70;;;;;;5046867;28;20049;-68
2023/06/22 08:47:29;;;;;;;6.82;5.30;;;30.20;92.30;;;;;;5067775;28;20055;-66
2023/06/22 08:49:56;;;;;;;6.32;4.32;;;30.10;91.30;;;;;;5044574;28;20419;-67
2023/06/22 08:52:24;;;;;;;11.82;5.15;;;30.50;91.10;;;;;;5060375;28;20055;-69
2023/06/22 08:54:52;;;;;;;7.97;4.90;;;30.80;90.70;;;;;;5072471;28;20052;-67
2023/06/22 08:57:19;;;;;;;6.63;5.00;;;31.10;90.40;;;;;;5071101;28;20044;-67
2023/06/22 08:59:46;;;;;;;9.10;5.55;;;31.10;90.20;;;;;;5055019;28;20052;-68
2023/06/22 09:02:13;;;;;;;13.25;5.07;;;31.10;89.20;;;;;;5072849;28;20531;-67
2023/06/22 09:04:41;;;;;;;8.73;5.13;;;31.50;89.60;;;;;;5072803;28;20075;-67
2023/06/22 09:07:08;;;;;;;8.90;4.70;;;31.30;89.50;;;;;;5072115;28;20075;-67
2023/06/22 09:09:35;;;;;;;7.30;5.40;;;31.60;89.40;;;;;;5072679;28;20408;-67
2023/06/22 09:12:03;;;;;;;7.38;5.03;;;31.50;88.70;;;;;;5071334;28;20044;-68
2023/06/22 09:14:30;;;;;;;8.20;4.73;;;31.90;87.90;;;;;;5064162;28;20094;-68
2023/06/22 09:16:57;;;;;;;9.48;5.30;;;31.90;87.90;;;;;;5049438;28;20048;-67
2023/06/22 09:19:24;;;;;;;6.82;5.57;;;31.90;87.90;;;;;;5054466;28;20049;-68
2023/06/22 09:21:51;;;;;;;6.40;5.15;;;31.50;86.60;;;;;;5045743;28;20105;-67
2023/06/22 09:24:18;;;;;;;11.48;5.03;;;31.60;87.40;;;;;;5065198;28;20044;-67
2023/06/22 09:26:45;;;;;;;9.55;4.65;;;31.80;87.70;;;;;;5065959;28;20048;-67
2023/06/22 09:29:13;;;;;;;7.32;4.63;;;31.80;87.00;;;;;;5063630;28;20053;-67
2023/06/22 09:31:40;;;;;;;7.10;4.72;;;31.70;87.50;;;;;;5057215;28;20105;-67
2023/06/22 09:34:07;;;;;;;7.18;4.32;;;31.60;86.80;;;;;;5063162;28;20076;-67
2023/06/22 09:36:34;;;;;;;10.02;4.93;;;31.90;87.40;;;;;;5072346;28;20048;-67
2023/06/22 09:39:05;;;;;;;9.50;5.65;;;32.30;87.40;;;;;;5071791;28;20055;-67
2023/06/22 09:41:32;;;;;;;7.13;5.05;;;32.30;86.20;;;;;;5072152;28;20127;-67
2023/06/22 09:43:59;;;;;;;6.78;4.45;;;32.10;86.30;;;;;;5071420;28;20045;-66
2023/06/22 09:46:28;;;;;;;8.55;5.95;;;31.50;86.30;;;;;;5054635;28;20163;-67
2023/06/22 10:20:42;;;;;;;7.03;5.05;;;32.50;84.70;;;;;;5133288;27;20435;-63
2023/06/22 10:23:09;;;;;;;7.82;4.50;;;33.30;81.80;;;;;;5129944;27;20050;-62
2023/06/22 10:25:35;;;;;;;6.10;4.53;;;33.10;82.70;;;;;;5129823;27;20047;-66
2023/06/22 10:28:02;;;;;;;7.50;4.03;;;33.20;82.90;;;;;;5131265;27;20047;-66
2023/06/22 10:30:29;;;;;;;7.72;4.00;;;32.80;82.40;;;;;;5129592;27;20469;-66
2023/06/22 10:32:56;;;;;;;7.05;4.43;;;33.00;83.00;;;;;;5130198;27;20047;-64
2023/06/22 10:35:23;;;;;;;8.45;5.28;;;32.80;82.50;;;;;;5149433;27;20042;-64
2023/06/22 10:37:51;;;;;;;6.78;4.85;;;32.40;82.70;;;;;;5147384;27;20112;-63
2023/06/22 10:40:19;;;;;;;7.15;5.13;;;32.50;82.50;;;;;;5149562;27;20406;-64
2023/06/22 10:42:46;;;;;;;8.32;5.63;;;32.60;83.10;;;;;;5131508;27;20127;-64
2023/06/22 10:45:13;;;;;;;5.90;4.53;;;32.60;82.50;;;;;;5135526;27;20108;-64
2023/06/22 10:47:42;;;;;;;8.05;5.20;;;32.30;82.00;;;;;;5132115;27;20058;-64
2023/06/22 10:50:09;;;;;;;7.30;5.00;;;32.10;82.00;;;;;;5134168;27;20047;-66
2023/06/22 10:52:36;;;;;;;10.73;5.28;;;32.40;82.70;;;;;;5129102;27;20039;-65
2023/06/22 10:55:05;;;;;;;10.38;4.63;;;32.60;82.80;;;;;;5131285;27;20047;-65
2023/06/22 10:57:32;;;;;;;7.45;4.90;;;32.90;82.00;;;;;;5142379;27;20165;-64
2023/06/22 10:59:59;;;;;;;7.25;5.22;;;32.80;81.80;;;;;;5131626;27;20050;-63
2023/06/22 11:02:28;;;;;;;7.70;4.80;;;32.60;81.80;;;;;;5147248;27;20070;-63
2023/06/22 11:04:55;;;;;;;6.38;4.07;;;32.80;81.60;;;;;;5129854;27;20438;-64
2023/06/22 11:07:22;;;;;;;7.80;3.95;;;32.40;82.00;;;;;;5134714;27;20051;-64
2023/06/22 11:09:49;;;;;;;7.38;4.32;;;32.20;82.50;;;;;;5148824;27;20095;-64
2023/06/22 11:12:17;;;;;;;9.07;4.88;;;32.30;82.40;;;;;;5149125;27;20487;-64
2023/06/22 11:14:44;;;;;;;10.77;4.13;;;32.60;81.60;;;;;;5127602;27;20047;-65
2023/06/22 11:17:10;;;;;;;6.22;4.32;;;32.60;81.50;;;;;;5127753;27;20051;-64
2023/06/22 11:19:37;;;;;;;6.75;4.18;;;32.80;81.30;;;;;;5128494;27;20388;-64
2023/06/22 11:22:05;;;;;;;6.68;4.30;;;32.90;81.00;;;;;;5115441;27;20052;-63
2023/06/22 11:24:32;;;;;;;8.35;4.95;;;32.60;80.50;;;;;;5117032;27;20047;-64
2023/06/22 11:26:59;;;;;;;7.18;4.03;;;32.60;81.60;;;;;;5113281;28;20108;-64
2023/06/22 11:29:27;;;;;;;7.03;5.07;;;32.80;81.70;;;;;;5117645;27;20043;-63
2023/06/22 11:31:55;;;;;;;8.57;4.00;;;32.90;80.90;;;;;;5117867;27;20100;-64
2023/06/22 11:34:21;;;;;;;5.75;4.22;;;33.00;81.40;;;;;;5114441;27;20055;-63
2023/06/22 11:36:48;;;;;;;5.60;4.53;;;33.00;80.90;;;;;;5113526;28;20056;-63
2023/06/22 11:39:15;;;;;;;6.13;4.45;;;32.80;80.60;;;;;;5115364;27;20039;-63
2023/06/22 11:41:42;;;;;;;9.57;5.07;;;32.60;81.40;;;;;;5113011;27;20071;-63
2023/06/22 11:44:09;;;;;;;8.55;4.80;;;32.30;81.10;;;;;;5113183;27;20137;-64
2023/06/22 11:46:38;;;;;;;6.15;4.22;;;32.40;81.70;;;;;;5116073;27;20047;-65
2023/06/22 11:49:05;;;;;;;5.83;4.40;;;32.10;81.80;;;;;;5115292;27;20492;-65
2023/06/22 11:51:32;;;;;;;6.22;4.18;;;31.90;82.00;;;;;;5120271;27;20280;-64
2023/06/22 11:53:59;;;;;;;6.40;4.80;;;31.90;82.10;;;;;;5114785;27;20097;-65
2023/06/22 11:56:27;;;;;;;9.50;4.85;;;31.90;82.10;;;;;;5119466;27;20043;-65
2023/06/22 11:58:55;;;;;;;5.07;3.95;;;31.80;82.50;;;;;;5117364;27;20127;-65
2023/06/22 12:01:22;;;;;;;10.57;4.43;;;31.60;82.70;;;;;;5117291;27;20040;-65
2023/06/22 12:03:50;;;;;;;8.57;4.45;;;31.50;82.70;;;;;;5117170;27;20072;-64
2023/06/22 12:06:18;;;;;;;6.32;4.88;;;31.40;83.30;;;;;;5113593;28;20047;-64
2023/06/22 12:08:45;;;;;;;5.47;4.35;;;31.40;83.50;;;;;;5117819;27;20438;-64
2023/06/22 12:11:11;;;;;;;10.32;4.40;;;31.30;84.40;;;;;;5131606;27;20424;-64
2023/06/22 12:13:38;;;;;;;6.85;4.43;;;31.30;83.80;;;;;;5114947;27;20051;-64
2023/06/22 12:16:06;;;;;;;7.38;5.50;;;31.20;83.80;;;;;;5117094;27;20051;-63
2023/06/22 12:18:34;;;;;;;4.80;3.85;;;31.00;83.80;;;;;;5112649;27;20097;-64
2023/06/22 12:21:02;;;;;;;7.20;4.43;;;31.00;84.00;;;;;;5121453;27;20059;-64
2023/06/22 12:23:29;;;;;;;6.50;3.92;;;30.80;84.20;;;;;;5112526;27;20448;-64
2023/06/22 12:25:56;;;;;;;6.88;3.92;;;30.60;84.60;;;;;;5117822;27;20054;-64
2023/06/22 12:28:23;;;;;;;5.25;4.00;;;30.50;84.60;;;;;;5121602;27;20043;-63
2023/06/22 12:30:50;;;;;;;5.97;4.45;;;30.40;84.90;;;;;;5112621;27;20044;-64
2023/06/22 12:33:17;;;;;;;8.90;4.55;;;30.30;84.90;;;;;;5117155;27;20457;-63
2023/06/22 12:35:45;;;;;;;5.78;3.67;;;30.00;85.50;;;;;;5120792;27;20039;-64
2023/06/22 12:38:14;;;;;;;7.47;4.28;;;29.90;85.90;;;;;;5116284;27;20043;-63
2023/06/22 12:40:41;;;;;;;6.72;3.85;;;29.90;86.20;;;;;;5113856;27;20464;-64
2023/06/22 12:43:08;;;;;;;4.88;3.75;;;29.80;86.30;;;;;;5113991;27;20377;-64
2023/06/22 12:45:35;;;;;;;6.65;4.47;;;29.70;86.60;;;;;;5113982;27;20074;-63
2023/06/22 12:48:02;;;;;;;6.50;4.00;;;29.70;86.90;;;;;;5114938;27;20052;-64
2023/06/22 12:50:29;;;;;;;8.13;3.95;;;29.60;86.90;;;;;;5118599;27;20044;-64
2023/06/22 12:52:56;;;;;;;11.77;4.18;;;29.60;87.10;;;;;;5113366;27;20058;-63
2023/06/22 12:55:24;;;;;;;6.55;4.22;;;29.30;87.30;;;;;;5120970;27;20411;-64
2023/06/22 12:57:51;;;;;;;11.75;5.57;;;29.30;87.40;;;;;;5115563;27;20096;-64
2023/06/22 13:00:18;;;;;;;5.65;4.05;;;29.20;87.50;;;;;;5117436;27;20445;-63
2023/06/22 13:02:45;;;;;;;11.73;4.22;;;29.20;87.60;;;;;;5112546;27;20484;-63
2023/06/22 13:05:12;;;;;;;7.90;4.72;;;29.10;87.70;;;;;;5114124;27;20051;-64
2023/06/22 13:07:39;;;;;;;7.88;4.30;;;28.80;88.00;;;;;;5116755;27;20044;-63